Mitsukawa Maru — JD2495 — position and weather

sailwx.info

Track history (hours):
 
Tides and Currents Weather Stations Pressure Air Temp Water Temp Dewpoint Dewpoint Depression Visibility Wind Speed Wind Dir Waves Ship Positions

Mitsukawa Maru

Last reported at 2016-Feb-14 18:14 UTC. Time now 2016-Feb-14 19:03 UTC.
Position N 35°34' E 139°59'.

Length 105 m; draft 6.7 m.

Type: Cargo ship. MMSI: 431000326.

Date/timePositionNaut miles runAvg speedWind from/ knotsBaromVisibWave heightAir tempDewpointWater temp
2016-Feb-14 18:14N 35°34' E 139°59'0 0.0
2016-Feb-14 17:29N 35°34' E 139°59'0 0.0
2016-Feb-14 16:32N 35°34' E 139°59'0 0.0
2016-Feb-14 15:29N 35°34' E 139°59'0 0.0
2016-Feb-14 14:29N 35°34' E 139°59'0 0.1
2016-Feb-14 13:32N 35°34' E 139°59'0 0.0
2016-Feb-14 12:31N 35°34' E 139°59'0 0.0
2016-Feb-14 11:29N 35°34' E 139°59'0 0.0
2016-Feb-14 10:29N 35°34' E 139°59'0 0.1
2016-Feb-14 09:32N 35°34' E 139°59'0 0.0
2016-Feb-14 08:30N 35°34' E 139°59'0 0.0
2016-Feb-14 07:22N 35°34' E 139°59'0 0.0
2016-Feb-14 06:34N 35°34' E 139°59'0 0.0
2016-Feb-14 05:33N 35°34' E 139°59'0 0.0
2016-Feb-14 04:32N 35°34' E 139°59'0 0.0
2016-Feb-14 03:16N 35°34' E 139°59'0 0.0
2016-Feb-14 02:34N 35°34' E 139°59'0 0.0
2016-Feb-14 01:22N 35°34' E 139°59'0 0.0
2016-Feb-14 00:28N 35°34' E 139°59'0 0.0
2016-Feb-13 23:32N 35°34' E 139°59'0 0.0
2016-Feb-13 22:33N 35°34' E 139°59'0 0.0
2016-Feb-13 21:33N 35°34' E 139°59'0 0.0
2016-Feb-13 20:31N 35°34' E 139°59'0 0.0
2016-Feb-13 19:31N 35°34' E 139°59'5 5.2
2016-Feb-13 18:33N 35°31' E 139°54'1212.4
2016-Feb-13 17:33N 35°21' E 139°45'1211.7
2016-Feb-13 16:33N 35°09' E 139°46'249 4.8
2016-Feb-11 13:04N 34°02' E 134°55'713.4
2016-Feb-11 12:33N 34°08' E 134°56'1312.8
2016-Feb-11 11:33N 34°21' E 134°59'1312.9
2016-Feb-11 10:33N 34°33' E 135°03'1010.1
2016-Feb-11 09:33N 34°34' E 134°50'  
2016-Feb-08 11:18N 35°07' E 139°41'1013.0
2016-Feb-08 10:33N 35°15' E 139°46'1111.1
2016-Feb-08 09:34N 35°26' E 139°46'1413.9
2016-Feb-08 08:33N 35°34' E 140°01'5 3.6
2016-Feb-08 07:11N 35°35' E 140°07'0 0.0
2016-Feb-08 06:32N 35°35' E 140°07'0 0.0
2016-Feb-08 05:32N 35°35' E 140°07'0 0.0
2016-Feb-08 04:29N 35°35' E 140°07'0 0.0
2016-Feb-08 03:29N 35°35' E 140°07'0 0.0
2016-Feb-08 02:29N 35°35' E 140°07'0 0.0
2016-Feb-08 01:32N 35°35' E 140°07'0 0.0
2016-Feb-08 00:23N 35°35' E 140°07'0 0.0
2016-Feb-07 23:32N 35°35' E 140°07'0 0.1
2016-Feb-07 22:33N 35°35' E 140°07'6 5.8
2016-Feb-07 21:33N 35°34' E 139°60'0 0.2
2016-Feb-07 20:32N 35°34' E 139°59'0 0.0
2016-Feb-07 19:32N 35°34' E 139°59'0 0.0
2016-Feb-07 18:32N 35°34' E 139°59'0 0.1
2016-Feb-07 17:26N 35°34' E 139°59'0 0.1
2016-Feb-07 16:32N 35°34' E 139°59'0 0.1
2016-Feb-07 15:33N 35°34' E 139°59'9 8.7
2016-Feb-07 14:33N 35°28' E 139°51'1211.6
2016-Feb-07 13:33N 35°18' E 139°44'1110.9
2016-Feb-07 12:33N 35°08' E 139°45'249 5.5
2016-Feb-05 15:13N 33°60' E 134°54'914.2
2016-Feb-05 14:33N 34°09' E 134°56'1514.8
2016-Feb-05 13:33N 34°24' E 135°00'1313.4
2016-Feb-05 12:33N 34°37' E 135°01'1413.7
2016-Feb-05 11:31N 34°32' E 134°45'  
Track history (hours):
 
Tides and Currents Weather Stations Pressure Air Temp Water Temp Dewpoint Dewpoint Depression Visibility Wind Speed Wind Dir Waves Ship Positions

Mitsukawa Maru

Last reported at 2016-Feb-14 18:14 UTC. Time now 2016-Feb-14 19:03 UTC.
Position N 35°34' E 139°59'.

Length 105 m; draft 6.7 m.

Type: Cargo ship. MMSI: 431000326.

Date/timePositionNaut miles runAvg speedWind from/ knotsBaromVisibWave heightAir tempDewpointWater temp
2016-Feb-14 18:14N 35°34' E 139°59'0 0.0
2016-Feb-14 17:29N 35°34' E 139°59'0 0.0
2016-Feb-14 16:32N 35°34' E 139°59'0 0.0
2016-Feb-14 15:29N 35°34' E 139°59'0 0.0
2016-Feb-14 14:29N 35°34' E 139°59'0 0.1
2016-Feb-14 13:32N 35°34' E 139°59'0 0.0
2016-Feb-14 12:31N 35°34' E 139°59'0 0.0
2016-Feb-14 11:29N 35°34' E 139°59'0 0.0
2016-Feb-14 10:29N 35°34' E 139°59'0 0.1
2016-Feb-14 09:32N 35°34' E 139°59'0 0.0
2016-Feb-14 08:30N 35°34' E 139°59'0 0.0
2016-Feb-14 07:22N 35°34' E 139°59'0 0.0
2016-Feb-14 06:34N 35°34' E 139°59'0 0.0
2016-Feb-14 05:33N 35°34' E 139°59'0 0.0
2016-Feb-14 04:32N 35°34' E 139°59'0 0.0
2016-Feb-14 03:16N 35°34' E 139°59'0 0.0
2016-Feb-14 02:34N 35°34' E 139°59'0 0.0
2016-Feb-14 01:22N 35°34' E 139°59'0 0.0
2016-Feb-14 00:28N 35°34' E 139°59'0 0.0
2016-Feb-13 23:32N 35°34' E 139°59'0 0.0
2016-Feb-13 22:33N 35°34' E 139°59'0 0.0
2016-Feb-13 21:33N 35°34' E 139°59'0 0.0
2016-Feb-13 20:31N 35°34' E 139°59'0 0.0
2016-Feb-13 19:31N 35°34' E 139°59'5 5.2
2016-Feb-13 18:33N 35°31' E 139°54'1212.4
2016-Feb-13 17:33N 35°21' E 139°45'1211.7
2016-Feb-13 16:33N 35°09' E 139°46'249 4.8
2016-Feb-11 13:04N 34°02' E 134°55'713.4
2016-Feb-11 12:33N 34°08' E 134°56'1312.8
2016-Feb-11 11:33N 34°21' E 134°59'1312.9
2016-Feb-11 10:33N 34°33' E 135°03'1010.1
2016-Feb-11 09:33N 34°34' E 134°50'  
2016-Feb-08 11:18N 35°07' E 139°41'1013.0
2016-Feb-08 10:33N 35°15' E 139°46'1111.1
2016-Feb-08 09:34N 35°26' E 139°46'1413.9
2016-Feb-08 08:33N 35°34' E 140°01'5 3.6
2016-Feb-08 07:11N 35°35' E 140°07'0 0.0
2016-Feb-08 06:32N 35°35' E 140°07'0 0.0
2016-Feb-08 05:32N 35°35' E 140°07'0 0.0
2016-Feb-08 04:29N 35°35' E 140°07'0 0.0
2016-Feb-08 03:29N 35°35' E 140°07'0 0.0
2016-Feb-08 02:29N 35°35' E 140°07'0 0.0
2016-Feb-08 01:32N 35°35' E 140°07'0 0.0
2016-Feb-08 00:23N 35°35' E 140°07'0 0.0
2016-Feb-07 23:32N 35°35' E 140°07'0 0.1
2016-Feb-07 22:33N 35°35' E 140°07'6 5.8
2016-Feb-07 21:33N 35°34' E 139°60'0 0.2
2016-Feb-07 20:32N 35°34' E 139°59'0 0.0
2016-Feb-07 19:32N 35°34' E 139°59'0 0.0
2016-Feb-07 18:32N 35°34' E 139°59'0 0.1
2016-Feb-07 17:26N 35°34' E 139°59'0 0.1
2016-Feb-07 16:32N 35°34' E 139°59'0 0.1
2016-Feb-07 15:33N 35°34' E 139°59'9 8.7
2016-Feb-07 14:33N 35°28' E 139°51'1211.6
2016-Feb-07 13:33N 35°18' E 139°44'1110.9
2016-Feb-07 12:33N 35°08' E 139°45'249 5.5
2016-Feb-05 15:13N 33°60' E 134°54'914.2
2016-Feb-05 14:33N 34°09' E 134°56'1514.8
2016-Feb-05 13:33N 34°24' E 135°00'1313.4
2016-Feb-05 12:33N 34°37' E 135°01'1413.7
2016-Feb-05 11:31N 34°32' E 134°45'  

Dump ship's entire track history